AirNav   Pilot Hours Calculator
 
 1128 users online  

39PA Gehris Airport
Souderton, Pennsylvania, USA

GOING TO SOUDERTON?


FAA INFORMATION EFFECTIVE 22 APRIL 2021

Location

FAA Identifier: 39PA
Lat/Long: 40-19-02.3760N 075-17-25.6310W
40-19.039600N 075-17.427183W
40.3173267,-75.2904531
(estimated)
Elevation: 570 ft. / 174 m (estimated)
Variation: 11W (1985)
From city: 1 mile E of SOUDERTON, PA
Time zone: UTC -4 (UTC -5 during Standard Time)
Zip code: 19440

Airport Operations

Airport use: Private use. Permission required prior to landing
Activation date: 03/1961
Control tower: no
ARTCC: NEW YORK CENTER
FSS: WILLIAMSPORT FLIGHT SERVICE STATION
Attendance: UNATNDD
Wind indicator: yes
Segmented circle: no

Airport Communications

WX AWOS-3 at CKZ (4 nm N): 126.325 (215-257-7291)
WX ASOS at DYL (8 nm E): 118.875 (215-345-0392)
WX AWOS-3 at UKT (8 nm NW): 119.475 (215-538-7610)
WX AWOS-3 at LOM (11 nm S): 118.925 (215-646-1068)
WX ASOS at PTW (13 nm W): 119.425 (610-495-0823)
WX AWOS-3 at XLL (18 nm NW): 127.875 (610-231-3111)
WX ASOS at PNE (19 nm SE): 121.15 (215-677-0146)

Nearby radio navigation aids

VOR radial/distance  VOR name  Freq  Var
PTWr074/13.6POTTSTOWN VORTAC116.5009W
ARDr292/17.9YARDLEY VOR/DME108.2010W
ETXr140/23.9EAST TEXAS VOR/DME110.2009W
FJCr173/25.7ALLENTOWN VORTAC117.5010W
MXEr045/29.6MODENA VORTAC113.2009W
SBJr248/29.7SOLBERG VOR/DME112.9010W
BWZr228/35.9BROADWAY VOR/DME114.2011W
GXUr312/36.8MC GUIRE VORTAC110.6012W
RBVr291/37.1ROBBINSVILLE VORTAC113.8010W

 
NDB name  Hdg/Dist  Freq  Var  ID
AMBLER011/11.527512WING .. -. --.

Airport Services

Airframe service: NONE
Powerplant service: NONE

Runway Information

Runway NE/SW

Dimensions: 1600 x 200 ft. / 488 x 61 m
Surface: turf
RUNWAY NE  RUNWAY SW
Traffic pattern: leftleft
Obstructions: 35 ft. trees, 300 ft. from runwaynone

Airport Ownership and Management from official FAA records

Ownership: Privately-owned
Owner: RUSSELL R. GEHRIS
415 FAIRHILL ROAD
HATFIELD, PA 19440
Phone 215-723-9431

Airport Operational Statistics

Aircraft based on the field: 3
Single engine airplanes: 3
    

Additional Remarks

FOR CD CTC PHILADELPHIA APCH AT 800-354-9884.

Instrument Procedures

There are no published instrument procedures at 39PA.

Some nearby airports with instrument procedures:

KCKZ - Pennridge Airport (4 nm N)
KDYL - Doylestown Airport (8 nm E)
KUKT - Quakertown Airport (8 nm NW)
N10 - Perkiomen Valley Airport (9 nm SW)
KLOM - Wings Field Airport (11 nm S)
KPTW - Heritage Field Airport (13 nm W)
KXLL - Allentown Queen City Municipal Airport (18 nm NW)
N47 - Pottstown Municipal Airport (18 nm W)
KPNE - Northeast Philadelphia Airport (19 nm SE)
 
Loc | Ops | Rwys | IFR | FBO | Links
Com | Nav | Svcs | Stats | Notes
Area around 39PA (Gehris Airport)
 
Road maps at: MapQuest Bing Google
 
Aerial photo
No photo
 
Sectional chart

 
Airport distance calculator
Flying to Gehris Airport? Find the distance to fly.

From to 39PA

Sunrise and sunset
Times for 16-May-2021
 Local
(UTC-4)
 Zulu
(UTC)
Morning civil twilight05:1409:14
Sunrise05:4509:45
Sunset20:1000:10
Evening civil twilight20:4100:41

Current date and time
Zulu (UTC)  16-May-2021 18:11:40
Local (UTC-4)  16-May-2021 14:11:40
 
METAR
KCKZ 
4nm N 
161755Z AUTO 24007KT 210V300 10SM CLR 20/07 A3027 RMK AO2
KDYL 
8nm E 
161754Z AUTO 21007KT 10SM CLR 21/05 A3025 RMK AO2 SLP242 T02110050 10211 20133 58010
KUKT 
8nm NW 
161755Z AUTO 17006KT 10SM FEW100 20/09 A3026 RMK A01
KLOM 
11nm S 
161755Z AUTO 25005KT 10SM CLR 21/06 A3026 RMK AO2 T02130065 10219 20138
KPTW 
13nm SW 
161754Z AUTO 24005KT 10SM CLR 20/06 A3027 RMK AO2 SLP247 T02000056 10206 20133 58010 $
KXLL 
18nm NW 
161755Z AUTO 23009KT 10SM BKN095 20/07 A3027 RMK AO2 LTG DSNT SW
KPNE 
19nm SE 
161754Z 20006KT 10SM CLR 21/04 A3027 RMK AO2 SLP249 T02110044 10217 20139 58012
TAF
KPNE 
19nm SE 
161120Z 1612/1712 VRB03KT P6SM BKN150 FM161400 22005KT P6SM BKN120 FM162000 26007KT P6SM VCSH BKN100 FM170200 VRB03KT P6SM BKN150
NOTAMs
Click for the latest NOTAMs
NOTAMs are issued by the DoD/FAA and will open in a separate window not controlled by AirNav.

 

 
 

Would you like to see your business listed on this page?

 If your business provides an interesting product or service to pilots, flight crews, aircraft, or users of the Gehris Airport, you should consider listing it here.  To start the listing process, click on the button below
 
Add a business
 

Other Pages about Gehris Airport

Update a link
 
Copyright © AirNav, LLC. All rights reserved. Privacy Policy  Contact